createdAt,value
2023-05-19T00:00:06.179Z,203.24
2023-05-19T00:01:06.220Z,199.53
2023-05-19T00:02:06.332Z,198.57
2023-05-19T00:03:06.384Z,203.55
2023-05-19T00:04:06.351Z,204.12
2023-05-19T00:05:06.389Z,204.35
2023-05-19T00:06:06.471Z,208.80
2023-05-19T00:07:06.470Z,203.63
2023-05-19T00:08:06.526Z,204.10
2023-05-19T00:09:06.570Z,207.38
2023-05-19T00:10:06.627Z,206.78
2023-05-19T00:11:06.708Z,203.22
2023-05-19T00:12:06.745Z,206.18
2023-05-19T00:13:06.777Z,206.15
2023-05-19T00:14:06.826Z,203.21
2023-05-19T00:15:06.883Z,204.61
2023-05-19T00:16:06.926Z,208.79
2023-05-19T00:17:06.990Z,214.11
2023-05-19T00:18:07.054Z,210.10
2023-05-19T00:19:07.122Z,213.34
2023-05-19T00:20:07.101Z,215.44
2023-05-19T00:21:07.167Z,216.73
2023-05-19T00:22:07.200Z,215.27
2023-05-19T00:23:07.255Z,218.33
2023-05-19T00:24:07.284Z,217.85
2023-05-19T00:25:07.340Z,220.99
2023-05-19T00:26:07.386Z,220.68
2023-05-19T00:27:07.447Z,221.18
2023-05-19T00:28:07.470Z,224.73
2023-05-19T00:29:07.519Z,223.50
2023-05-19T00:30:07.567Z,225.54
2023-05-19T00:31:07.594Z,229.53
2023-05-19T00:32:07.718Z,228.73
2023-05-19T00:33:07.819Z,221.18
2023-05-19T00:34:07.734Z,227.08
2023-05-19T00:35:07.764Z,224.00
2023-05-19T00:36:07.816Z,229.32
2023-05-19T00:37:07.863Z,227.70
2023-05-19T00:38:07.921Z,227.63
2023-05-19T00:39:07.930Z,228.92
2023-05-19T00:40:08.001Z,231.33
2023-05-19T00:41:08.053Z,231.11
2023-05-19T00:42:08.094Z,233.99
2023-05-19T00:43:08.118Z,235.44
2023-05-19T00:44:08.152Z,230.87
2023-05-19T00:45:08.207Z,234.24
2023-05-19T00:46:08.300Z,236.35
2023-05-19T00:47:08.522Z,236.20
2023-05-19T00:48:08.372Z,237.37
2023-05-19T00:49:08.392Z,241.28
2023-05-19T00:50:08.448Z,242.45
2023-05-19T00:51:08.486Z,238.69
2023-05-19T00:52:08.507Z,239.16
2023-05-19T00:53:08.558Z,235.55
2023-05-19T00:54:08.621Z,235.99
2023-05-19T00:55:08.686Z,237.20
2023-05-19T00:56:09.154Z,234.69
2023-05-19T00:57:08.758Z,236.17
2023-05-19T00:58:08.807Z,235.26
2023-05-19T00:59:08.860Z,237.89
2023-05-19T01:00:08.897Z,240.13
2023-05-19T01:01:08.997Z,242.82
2023-05-19T01:02:09.025Z,240.81
2023-05-19T01:03:09.158Z,244.28
2023-05-19T01:04:09.130Z,242.15
2023-05-19T01:05:09.127Z,241.35
2023-05-19T01:06:09.184Z,241.69
2023-05-19T01:07:09.231Z,238.32
2023-05-19T01:08:09.303Z,242.81
2023-05-19T01:09:09.331Z,247.97
2023-05-19T01:10:09.399Z,246.54
2023-05-19T01:11:09.502Z,247.15
2023-05-19T01:12:09.500Z,245.96
2023-05-19T01:13:09.564Z,247.68
2023-05-19T01:14:09.604Z,249.17
2023-05-19T01:15:09.635Z,248.81
2023-05-19T01:16:09.784Z,245.90
2023-05-19T01:17:09.769Z,245.84
2023-05-19T01:18:09.851Z,247.67
2023-05-19T01:19:09.871Z,245.34
2023-05-19T01:20:09.887Z,241.07
2023-05-19T01:21:09.969Z,244.56
2023-05-19T01:22:10.013Z,244.29
2023-05-19T01:23:10.031Z,247.44
2023-05-19T01:24:10.077Z,246.53
2023-05-19T01:25:10.202Z,250.00
2023-05-19T01:26:10.179Z,247.89
2023-05-19T01:27:10.205Z,249.57
2023-05-19T01:28:10.266Z,247.94
2023-05-19T01:29:10.302Z,249.47
2023-05-19T01:30:10.366Z,248.31
2023-05-19T01:31:10.436Z,244.75
2023-05-19T01:32:10.509Z,244.17
2023-05-19T01:33:10.478Z,243.79
2023-05-19T01:34:10.524Z,239.64
2023-05-19T01:35:10.573Z,247.96
2023-05-19T01:36:10.631Z,244.55
2023-05-19T01:37:10.655Z,246.12
2023-05-19T01:38:10.706Z,247.93
2023-05-19T01:39:10.764Z,248.31
2023-05-19T01:40:10.815Z,242.78
2023-05-19T01:41:10.851Z,244.65
2023-05-19T01:42:10.895Z,245.65
2023-05-19T01:43:10.946Z,247.54
2023-05-19T01:44:10.987Z,248.71
2023-05-19T01:45:11.051Z,248.33
2023-05-19T01:46:11.147Z,244.36
2023-05-19T01:47:11.127Z,244.80
2023-05-19T01:48:11.415Z,243.62
2023-05-19T01:49:11.236Z,245.86
2023-05-19T01:50:11.262Z,244.87
2023-05-19T01:51:11.324Z,243.80
2023-05-19T01:52:11.493Z,245.92
2023-05-19T01:53:11.412Z,247.75
2023-05-19T01:54:11.478Z,247.99
2023-05-19T01:55:11.505Z,249.80
2023-05-19T01:56:11.547Z,246.48
2023-05-19T01:57:11.654Z,249.30
2023-05-19T01:58:11.690Z,245.47
2023-05-19T01:59:11.691Z,246.30
2023-05-19T02:00:11.764Z,244.38
2023-05-19T02:01:11.785Z,247.05
2023-05-19T02:02:11.834Z,245.15
2023-05-19T02:03:11.862Z,243.68
2023-05-19T02:04:11.936Z,246.08
2023-05-19T02:05:11.950Z,246.23
2023-05-19T02:06:12.014Z,246.39
2023-05-19T02:07:12.047Z,241.76
2023-05-19T02:08:12.118Z,245.03
2023-05-19T02:09:12.190Z,247.95
2023-05-19T02:10:12.228Z,247.98
2023-05-19T02:11:12.262Z,246.78
2023-05-19T02:12:12.349Z,246.40
2023-05-19T02:13:12.348Z,247.20
2023-05-19T02:14:12.403Z,248.23
2023-05-19T02:15:12.451Z,246.27
2023-05-19T02:16:12.534Z,243.03
2023-05-19T02:17:12.541Z,246.06
2023-05-19T02:18:12.630Z,246.37
2023-05-19T02:19:12.684Z,244.46
2023-05-19T02:20:12.686Z,247.89
2023-05-19T02:21:12.748Z,247.10
2023-05-19T02:22:12.816Z,246.90
2023-05-19T02:23:12.842Z,247.10
2023-05-19T02:24:12.888Z,245.07
2023-05-19T02:25:12.950Z,245.24
2023-05-19T02:26:13.037Z,248.31
2023-05-19T02:27:13.035Z,246.22
2023-05-19T02:28:13.103Z,247.45
2023-05-19T02:29:13.159Z,249.42
2023-05-19T02:30:13.226Z,249.49
2023-05-19T02:31:13.278Z,247.45
2023-05-19T02:32:13.376Z,248.70
2023-05-19T02:33:13.427Z,249.07
2023-05-19T02:34:13.417Z,246.40
2023-05-19T02:35:13.480Z,249.60
2023-05-19T02:36:13.530Z,248.14
2023-05-19T02:37:13.613Z,245.61
2023-05-19T02:38:13.634Z,248.82
2023-05-19T02:39:13.697Z,250.00
2023-05-19T02:40:13.730Z,245.59
2023-05-19T02:41:13.795Z,246.92
2023-05-19T02:42:13.840Z,247.77
2023-05-19T02:43:13.880Z,248.59
2023-05-19T02:44:13.964Z,248.24
2023-05-19T02:45:13.994Z,250.00
2023-05-19T02:46:14.098Z,245.71
2023-05-19T02:47:14.118Z,245.31
2023-05-19T02:48:14.165Z,247.59
2023-05-19T02:49:14.231Z,248.01
2023-05-19T02:50:14.292Z,249.96
2023-05-19T02:51:14.331Z,250.00
2023-05-19T02:52:14.410Z,249.90
2023-05-19T02:53:14.446Z,249.18
2023-05-19T02:54:14.485Z,247.40
2023-05-19T02:55:14.581Z,248.52
2023-05-19T02:56:14.614Z,246.38
2023-05-19T02:57:14.650Z,247.59
2023-05-19T02:58:14.727Z,248.30
2023-05-19T02:59:14.790Z,247.39
2023-05-19T03:00:14.828Z,246.78
2023-05-19T03:01:14.956Z,247.39
2023-05-19T03:02:14.971Z,245.30
2023-05-19T03:03:15.084Z,243.36
2023-05-19T03:04:15.039Z,246.63
2023-05-19T03:05:15.107Z,246.50
2023-05-19T03:06:15.180Z,249.47
2023-05-19T03:07:15.220Z,248.60
2023-05-19T03:08:15.272Z,246.42
2023-05-19T03:09:15.340Z,247.20
2023-05-19T03:10:15.392Z,246.52
2023-05-19T03:11:15.586Z,246.36
2023-05-19T03:12:15.512Z,250.00
2023-05-19T03:13:15.566Z,245.60
2023-05-19T03:14:15.660Z,248.54
2023-05-19T03:15:15.669Z,245.48
2023-05-19T03:16:15.874Z,245.90
2023-05-19T03:17:15.843Z,250.00
2023-05-19T03:18:15.854Z,247.74
2023-05-19T03:19:15.968Z,245.85
2023-05-19T03:20:15.943Z,248.13
2023-05-19T03:21:16.017Z,248.14
2023-05-19T03:22:16.076Z,248.28
2023-05-19T03:23:16.124Z,248.03
2023-05-19T03:24:16.176Z,245.53
2023-05-19T03:25:16.233Z,246.27
2023-05-19T03:26:16.309Z,246.85
2023-05-19T03:27:16.356Z,248.61
2023-05-19T03:28:16.406Z,245.93
2023-05-19T03:29:16.493Z,249.31
2023-05-19T03:30:16.519Z,247.12
2023-05-19T03:31:16.578Z,245.18
2023-05-19T03:32:16.665Z,246.68
2023-05-19T03:33:16.816Z,248.41
2023-05-19T03:34:16.779Z,245.58
2023-05-19T03:35:16.857Z,247.76
2023-05-19T03:36:16.865Z,244.39
2023-05-19T03:37:16.911Z,247.91
2023-05-19T03:38:17.015Z,247.24
2023-05-19T03:39:17.031Z,244.79
2023-05-19T03:40:17.086Z,247.73
2023-05-19T03:41:17.154Z,250.00
2023-05-19T03:42:17.189Z,244.37
2023-05-19T03:43:17.251Z,245.47
2023-05-19T03:44:17.323Z,245.85
2023-05-19T03:45:17.364Z,248.30
2023-05-19T03:46:17.497Z,246.41
2023-05-19T03:47:17.503Z,248.84
2023-05-19T03:48:19.142Z,248.11
2023-05-19T03:49:17.584Z,247.67
2023-05-19T03:50:17.643Z,247.34
2023-05-19T03:51:17.649Z,247.68
2023-05-19T03:52:17.697Z,245.86
2023-05-19T03:53:17.879Z,243.76
2023-05-19T03:54:17.795Z,243.79
2023-05-19T03:55:17.818Z,242.64
2023-05-19T03:56:17.847Z,245.62
2023-05-19T03:57:17.953Z,244.75
2023-05-19T03:58:17.951Z,243.61
2023-05-19T03:59:17.974Z,246.79
2023-05-19T04:00:17.989Z,245.95
2023-05-19T04:01:18.016Z,245.84
2023-05-19T04:02:18.098Z,247.16
2023-05-19T04:03:18.260Z,246.11
2023-05-19T04:04:18.143Z,244.12
2023-05-19T04:05:18.138Z,246.97
2023-05-19T04:06:18.179Z,245.11
2023-05-19T04:07:18.207Z,247.83
2023-05-19T04:08:18.245Z,242.03
2023-05-19T04:09:18.264Z,247.00
2023-05-19T04:10:18.320Z,241.88
2023-05-19T04:11:18.330Z,242.66
2023-05-19T04:12:18.356Z,242.95
2023-05-19T04:13:18.390Z,244.00
2023-05-19T04:14:18.444Z,245.44
2023-05-19T04:15:18.457Z,245.23
2023-05-19T04:16:18.573Z,246.45
2023-05-19T04:17:18.517Z,245.76
2023-05-19T04:18:18.569Z,245.08
2023-05-19T04:19:18.604Z,243.68
2023-05-19T04:20:18.608Z,246.14
2023-05-19T04:21:18.686Z,247.14
2023-05-19T04:22:18.678Z,247.06
2023-05-19T04:23:18.727Z,242.58
2023-05-19T04:24:18.754Z,245.25
2023-05-19T04:25:18.764Z,246.77
2023-05-19T04:26:18.792Z,244.46
2023-05-19T04:27:18.818Z,244.13
2023-05-19T04:28:18.858Z,243.03
2023-05-19T04:29:18.885Z,243.45
2023-05-19T04:30:18.926Z,246.13
2023-05-19T04:31:19.017Z,244.34
2023-05-19T04:32:18.996Z,247.32
2023-05-19T04:33:19.000Z,244.34
2023-05-19T04:34:19.036Z,245.46
2023-05-19T04:35:19.080Z,242.11
2023-05-19T04:36:19.126Z,244.78
2023-05-19T04:37:19.131Z,244.04
2023-05-19T04:38:19.166Z,243.91
2023-05-19T04:39:19.179Z,242.55
2023-05-19T04:40:19.208Z,244.18
2023-05-19T04:41:19.252Z,243.78
2023-05-19T04:42:19.341Z,244.53
2023-05-19T04:43:19.305Z,243.85
2023-05-19T04:44:19.369Z,243.04
2023-05-19T04:45:19.371Z,244.53
2023-05-19T04:46:19.481Z,241.17
2023-05-19T04:47:19.435Z,242.50
2023-05-19T04:48:19.469Z,241.88
2023-05-19T04:49:19.512Z,243.90
2023-05-19T04:50:19.541Z,245.03
2023-05-19T04:51:19.586Z,244.18
2023-05-19T04:52:19.614Z,244.47
2023-05-19T04:53:19.639Z,243.40
2023-05-19T04:54:19.669Z,245.20
2023-05-19T04:55:19.769Z,242.56
2023-05-19T04:56:19.759Z,243.28
2023-05-19T04:57:19.751Z,245.47
2023-05-19T04:58:19.782Z,244.68
2023-05-19T04:59:19.826Z,244.37
2023-05-19T05:00:19.899Z,243.83
2023-05-19T05:01:19.969Z,244.84
2023-05-19T05:02:20.194Z,242.65
2023-05-19T05:03:20.194Z,244.21
2023-05-19T05:04:20.109Z,247.79
2023-05-19T05:05:20.179Z,244.16
2023-05-19T05:06:20.244Z,240.82
2023-05-19T05:07:20.295Z,241.67
2023-05-19T05:08:20.355Z,242.58
2023-05-19T05:09:20.418Z,244.59
2023-05-19T05:10:20.455Z,243.96
2023-05-19T05:11:20.520Z,242.89
2023-05-19T05:12:20.559Z,239.91
2023-05-19T05:13:20.624Z,241.77
2023-05-19T05:14:20.686Z,242.38
2023-05-19T05:15:20.727Z,243.25
2023-05-19T05:16:20.821Z,242.37
2023-05-19T05:17:20.860Z,242.47
2023-05-19T05:18:20.900Z,244.37
2023-05-19T05:19:20.997Z,241.44
2023-05-19T05:20:21.010Z,243.58
2023-05-19T05:21:21.072Z,239.60
2023-05-19T05:22:21.112Z,241.61
2023-05-19T05:23:21.176Z,240.10
2023-05-19T05:24:21.249Z,242.67
2023-05-19T05:25:21.290Z,245.58
2023-05-19T05:26:21.358Z,241.30
2023-05-19T05:27:21.398Z,241.73
2023-05-19T05:28:21.466Z,240.86
2023-05-19T05:29:21.495Z,242.64
2023-05-19T05:30:21.556Z,241.80
2023-05-19T05:31:21.606Z,241.74
2023-05-19T05:32:21.677Z,238.55
2023-05-19T05:33:21.781Z,239.62
2023-05-19T05:34:21.767Z,240.09
2023-05-19T05:35:21.813Z,241.19
2023-05-19T05:36:21.867Z,237.04
2023-05-19T05:37:21.922Z,237.59
2023-05-19T05:38:22.000Z,239.31
2023-05-19T05:39:22.063Z,237.62
2023-05-19T05:40:22.099Z,242.76
2023-05-19T05:41:22.178Z,235.50
2023-05-19T05:42:22.194Z,239.95
2023-05-19T05:43:22.256Z,237.41
2023-05-19T05:44:22.334Z,239.67
2023-05-19T05:45:22.349Z,237.00
2023-05-19T05:46:22.427Z,239.45
2023-05-19T05:47:22.435Z,241.24
2023-05-19T05:48:22.471Z,241.08
2023-05-19T05:49:22.510Z,241.11
2023-05-19T05:50:22.539Z,241.62
2023-05-19T05:51:22.627Z,241.38
2023-05-19T05:52:22.594Z,242.64
2023-05-19T05:53:22.647Z,243.58
2023-05-19T05:54:22.674Z,242.79
2023-05-19T05:55:22.723Z,239.20
2023-05-19T05:56:22.738Z,237.37
2023-05-19T05:57:22.761Z,240.20
2023-05-19T05:58:22.793Z,240.64
2023-05-19T05:59:22.846Z,243.62
2023-05-19T06:00:22.868Z,242.42
2023-05-19T06:01:22.888Z,240.89
2023-05-19T06:02:22.994Z,241.03
2023-05-19T06:03:23.009Z,238.57
2023-05-19T06:04:22.999Z,236.63
2023-05-19T06:05:23.107Z,240.00
2023-05-19T06:06:23.113Z,240.28
2023-05-19T06:07:23.121Z,241.01
2023-05-19T06:08:23.154Z,238.37
2023-05-19T06:09:23.173Z,239.46
2023-05-19T06:10:23.203Z,238.50
2023-05-19T06:11:23.246Z,234.48
2023-05-19T06:12:23.277Z,240.64
2023-05-19T06:13:23.284Z,238.88
2023-05-19T06:14:23.323Z,240.13
2023-05-19T06:15:23.352Z,240.41
2023-05-19T06:16:23.534Z,239.17
2023-05-19T06:17:23.461Z,238.77
2023-05-19T06:18:23.476Z,238.97
2023-05-19T06:19:23.596Z,238.79
2023-05-19T06:20:23.539Z,239.39
2023-05-19T06:21:23.567Z,239.05
2023-05-19T06:22:23.643Z,232.69
2023-05-19T06:23:23.620Z,238.77
2023-05-19T06:24:23.624Z,240.00
2023-05-19T06:25:23.681Z,242.79
2023-05-19T06:26:23.704Z,240.03
2023-05-19T06:27:23.742Z,240.21
2023-05-19T06:28:23.777Z,236.38
2023-05-19T06:29:23.793Z,237.61
2023-05-19T06:30:23.814Z,237.23
2023-05-19T06:31:23.924Z,236.85
2023-05-19T06:32:23.880Z,238.00
2023-05-19T06:33:25.037Z,235.01
2023-05-19T06:34:23.933Z,238.69
2023-05-19T06:35:23.981Z,239.15
2023-05-19T06:36:23.991Z,244.20
2023-05-19T06:37:24.005Z,239.38
2023-05-19T06:38:24.035Z,243.11
2023-05-19T06:39:24.063Z,237.98
2023-05-19T06:40:24.113Z,239.20
2023-05-19T06:41:24.118Z,241.91
2023-05-19T06:42:24.184Z,239.27
2023-05-19T06:43:24.168Z,239.79
2023-05-19T06:44:24.208Z,238.11
2023-05-19T06:45:24.238Z,242.26
2023-05-19T06:46:24.372Z,243.22
2023-05-19T06:47:24.441Z,243.27
2023-05-19T06:48:24.372Z,238.75
2023-05-19T06:49:24.417Z,239.07
2023-05-19T06:50:24.462Z,241.99
2023-05-19T06:51:24.487Z,236.44
2023-05-19T06:52:24.546Z,239.10
2023-05-19T06:53:24.590Z,236.58
2023-05-19T06:54:24.713Z,234.71
2023-05-19T06:55:24.668Z,234.92
2023-05-19T06:56:24.703Z,240.52
2023-05-19T06:57:24.779Z,236.47
2023-05-19T06:58:24.798Z,240.16
2023-05-19T06:59:24.852Z,238.61
2023-05-19T07:00:24.878Z,241.74
2023-05-19T07:01:24.964Z,238.06
2023-05-19T07:02:24.956Z,237.49
2023-05-19T07:03:25.091Z,237.89
2023-05-19T07:04:25.129Z,236.57
2023-05-19T07:05:25.105Z,234.46
2023-05-19T07:06:25.192Z,235.15
2023-05-19T07:07:25.172Z,237.21
2023-05-19T07:08:25.209Z,240.49
2023-05-19T07:09:25.256Z,234.12
2023-05-19T07:10:25.341Z,235.80
2023-05-19T07:11:25.351Z,239.92
2023-05-19T07:12:25.379Z,235.88
2023-05-19T07:13:27.363Z,235.34
2023-05-19T07:14:25.452Z,234.71
2023-05-19T07:15:25.496Z,234.26
2023-05-19T07:16:25.547Z,234.98
2023-05-19T07:17:25.598Z,236.96
2023-05-19T07:18:25.610Z,235.44
2023-05-19T07:19:25.738Z,232.23
2023-05-19T07:20:25.719Z,230.49
2023-05-19T07:21:25.717Z,231.75
2023-05-19T07:22:25.732Z,234.49
2023-05-19T07:23:25.773Z,236.12
2023-05-19T07:24:25.826Z,233.86
2023-05-19T07:25:25.859Z,233.83
2023-05-19T07:26:25.945Z,234.82
2023-05-19T07:27:25.963Z,232.14
2023-05-19T07:28:25.978Z,233.67
2023-05-19T07:29:26.056Z,235.15
2023-05-19T07:30:26.086Z,236.37
2023-05-19T07:31:26.180Z,230.17
2023-05-19T07:32:26.365Z,233.35
2023-05-19T07:33:26.205Z,235.76
2023-05-19T07:34:26.246Z,229.09
2023-05-19T07:35:26.269Z,231.98
2023-05-19T07:36:26.312Z,233.97
2023-05-19T07:37:26.365Z,232.27
2023-05-19T07:38:26.388Z,230.17
2023-05-19T07:39:26.422Z,230.66
2023-05-19T07:40:26.475Z,225.61
2023-05-19T07:41:26.523Z,225.40
2023-05-19T07:42:26.566Z,227.09
2023-05-19T07:43:26.584Z,230.43
2023-05-19T07:44:26.610Z,226.12
2023-05-19T07:45:26.662Z,230.05
2023-05-19T07:46:26.797Z,227.14
2023-05-19T07:47:26.738Z,226.55
2023-05-19T07:48:26.768Z,229.80
2023-05-19T07:49:26.808Z,225.94
2023-05-19T07:50:26.942Z,227.83
2023-05-19T07:51:26.884Z,222.34
2023-05-19T07:52:26.910Z,222.73
2023-05-19T07:53:26.970Z,225.43
2023-05-19T07:54:26.999Z,220.29
2023-05-19T07:55:27.045Z,216.69
2023-05-19T07:56:27.073Z,216.33
2023-05-19T07:57:27.100Z,218.80
2023-05-19T07:58:27.126Z,216.74
2023-05-19T07:59:27.166Z,212.70
2023-05-19T08:00:27.336Z,212.24
2023-05-19T08:01:27.233Z,211.83
2023-05-19T08:02:27.301Z,214.32
2023-05-19T08:03:27.425Z,211.37
2023-05-19T08:04:27.345Z,212.65
2023-05-19T08:05:27.370Z,214.95
2023-05-19T08:06:27.376Z,213.24
2023-05-19T08:07:27.432Z,211.11
2023-05-19T08:08:27.476Z,214.09
2023-05-19T08:09:27.553Z,208.30
2023-05-19T08:10:27.568Z,210.92
2023-05-19T08:11:27.612Z,210.86
2023-05-19T08:12:27.661Z,211.01
2023-05-19T08:13:27.699Z,210.52
2023-05-19T08:14:27.735Z,208.45
2023-05-19T08:15:27.860Z,207.48
2023-05-19T08:16:27.902Z,207.99
2023-05-19T08:17:27.905Z,209.42
2023-05-19T08:18:27.888Z,207.73
2023-05-19T08:19:28.013Z,207.73
2023-05-19T08:20:28.025Z,205.05
2023-05-19T08:21:28.049Z,203.22
2023-05-19T08:22:28.150Z,203.20
2023-05-19T08:23:28.132Z,205.24
2023-05-19T08:24:28.155Z,202.99
2023-05-19T08:25:28.197Z,203.38
2023-05-19T08:26:28.228Z,203.97
2023-05-19T08:27:28.285Z,203.39
2023-05-19T08:28:28.347Z,197.15
2023-05-19T08:29:28.338Z,201.76
2023-05-19T08:30:28.372Z,200.24
2023-05-19T08:31:28.492Z,195.92
2023-05-19T08:32:28.468Z,196.17
2023-05-19T08:33:28.472Z,196.90
2023-05-19T08:34:28.499Z,189.84
2023-05-19T08:35:28.587Z,188.72
2023-05-19T08:36:28.588Z,187.19
2023-05-19T08:37:28.600Z,188.64
2023-05-19T08:38:28.640Z,189.44
2023-05-19T08:39:28.701Z,187.85
2023-05-19T08:40:28.700Z,182.36
2023-05-19T08:41:28.734Z,182.99
2023-05-19T08:42:28.774Z,185.37
2023-05-19T08:43:28.814Z,185.89
2023-05-19T08:44:28.861Z,184.32
2023-05-19T08:45:28.919Z,186.87
2023-05-19T08:46:28.919Z,188.74
2023-05-19T08:47:28.980Z,186.45
2023-05-19T08:48:29.025Z,186.64
2023-05-19T08:49:28.978Z,187.31
2023-05-19T08:50:29.003Z,187.85
2023-05-19T08:51:29.030Z,186.79
2023-05-19T08:52:29.096Z,187.28
2023-05-19T08:53:33.062Z,180.45
2023-05-19T08:54:30.088Z,180.75
2023-05-19T08:55:29.131Z,181.18
2023-05-19T08:56:29.127Z,181.68
2023-05-19T08:57:29.179Z,186.29
2023-05-19T08:58:29.171Z,186.32
2023-05-19T08:59:29.222Z,191.10
2023-05-19T09:00:29.251Z,188.35
2023-05-19T09:01:29.341Z,189.15
2023-05-19T09:02:29.388Z,185.80
2023-05-19T09:03:29.432Z,185.51
2023-05-19T09:04:30.278Z,185.64
2023-05-19T09:05:29.385Z,187.49
2023-05-19T09:06:29.395Z,189.79
2023-05-19T09:07:29.490Z,189.41
2023-05-19T09:08:29.436Z,191.07
2023-05-19T09:09:29.454Z,195.18
2023-05-19T09:10:29.491Z,193.57
2023-05-19T09:11:29.520Z,192.61
2023-05-19T09:12:29.530Z,198.61
2023-05-19T09:13:29.591Z,198.13
2023-05-19T09:14:29.572Z,196.89
2023-05-19T09:15:29.650Z,194.73
2023-05-19T09:16:30.444Z,190.65
2023-05-19T09:17:29.678Z,188.73
2023-05-19T09:18:29.717Z,194.54
2023-05-19T09:19:29.762Z,196.48
2023-05-19T09:20:29.694Z,193.60
2023-05-19T09:21:29.713Z,199.10
2023-05-19T09:22:29.758Z,198.98
2023-05-19T09:23:29.810Z,195.32
2023-05-19T09:24:29.888Z,202.56
2023-05-19T09:25:29.892Z,200.34
2023-05-19T09:26:29.920Z,201.49
2023-05-19T09:27:30.007Z,202.99
2023-05-19T09:28:30.069Z,199.51
2023-05-19T09:29:30.115Z,203.69
2023-05-19T09:30:30.158Z,197.88
2023-05-19T09:31:30.176Z,199.27
2023-05-19T09:32:30.279Z,199.06
2023-05-19T09:33:30.221Z,203.10
2023-05-19T09:34:30.276Z,200.28
2023-05-19T09:35:30.467Z,207.70
2023-05-19T09:36:30.363Z,209.75
2023-05-19T09:37:30.426Z,207.00
2023-05-19T09:38:30.466Z,209.30
2023-05-19T09:39:30.531Z,205.48
2023-05-19T09:40:30.557Z,205.98
2023-05-19T09:41:30.614Z,206.31
2023-05-19T09:42:30.672Z,206.75
2023-05-19T09:43:30.719Z,204.37
2023-05-19T09:44:30.770Z,204.80
2023-05-19T09:45:30.950Z,212.07
2023-05-19T09:46:30.854Z,209.07
2023-05-19T09:47:30.912Z,203.74
2023-05-19T09:48:30.938Z,205.30
2023-05-19T09:49:30.962Z,209.57
2023-05-19T09:50:30.998Z,209.99
2023-05-19T09:51:31.052Z,208.15
2023-05-19T09:52:31.120Z,209.60
2023-05-19T09:53:31.209Z,209.19
2023-05-19T09:54:31.322Z,207.66
2023-05-19T09:55:31.426Z,205.69
2023-05-19T09:56:31.417Z,206.55
2023-05-19T09:57:31.518Z,204.86
2023-05-19T09:58:31.584Z,199.44
2023-05-19T09:59:33.711Z,195.68
2023-05-19T10:00:31.972Z,195.04
2023-05-19T10:01:31.833Z,195.25
2023-05-19T10:02:31.857Z,196.01
2023-05-19T10:03:31.830Z,196.18
2023-05-19T10:04:32.020Z,197.43
2023-05-19T10:05:32.065Z,195.75
2023-05-19T10:06:31.892Z,191.52
2023-05-19T10:07:31.923Z,181.22
2023-05-19T10:08:31.990Z,179.48
2023-05-19T10:09:31.955Z,180.70
2023-05-19T10:10:32.040Z,175.30
2023-05-19T10:11:32.158Z,175.15
2023-05-19T10:12:32.232Z,171.28
2023-05-19T10:13:32.321Z,164.76
2023-05-19T10:14:32.396Z,155.82
2023-05-19T10:15:34.448Z,151.08
2023-05-19T10:16:32.550Z,152.54
2023-05-19T10:17:32.557Z,147.28
2023-05-19T10:18:32.550Z,142.05
2023-05-19T10:19:32.598Z,132.85
2023-05-19T10:20:32.850Z,128.64
2023-05-19T10:21:32.596Z,124.68
2023-05-19T10:22:32.626Z,130.00
2023-05-19T10:23:32.634Z,122.19
2023-05-19T10:24:32.695Z,125.26
2023-05-19T10:25:32.843Z,125.05
2023-05-19T10:26:32.705Z,119.30
2023-05-19T10:27:32.868Z,110.57
2023-05-19T10:28:32.772Z,106.23
2023-05-19T10:29:32.785Z,104.06
2023-05-19T10:30:32.809Z,96.53
2023-05-19T10:31:32.826Z,95.55
2023-05-19T10:32:32.993Z,92.73
2023-05-19T10:33:32.871Z,91.10
2023-05-19T10:34:32.885Z,90.71
2023-05-19T10:35:32.935Z,93.36
2023-05-19T10:36:32.957Z,89.26
2023-05-19T10:37:32.957Z,90.65
2023-05-19T10:38:32.955Z,88.97
2023-05-19T10:39:33.026Z,82.52
2023-05-19T10:40:33.106Z,83.18
2023-05-19T10:41:33.167Z,78.95
2023-05-19T10:42:33.295Z,78.77
2023-05-19T10:43:33.369Z,73.78
2023-05-19T10:44:33.454Z,69.19
2023-05-19T10:45:33.658Z,68.77
2023-05-19T10:46:33.651Z,68.06
2023-05-19T10:47:33.797Z,71.57
2023-05-19T10:48:33.816Z,67.48
2023-05-19T10:49:33.894Z,67.32
2023-05-19T10:50:33.976Z,64.51
2023-05-19T10:51:34.069Z,66.21
2023-05-19T10:52:34.139Z,67.50
2023-05-19T10:53:34.278Z,62.62
2023-05-19T10:54:34.294Z,53.70
2023-05-19T10:55:34.582Z,48.85
2023-05-19T10:56:34.540Z,52.75
2023-05-19T10:57:34.559Z,47.85
2023-05-19T10:58:34.661Z,47.10
2023-05-19T10:59:34.733Z,46.40
2023-05-19T11:00:34.809Z,49.71
2023-05-19T11:01:35.001Z,43.12
2023-05-19T11:02:35.036Z,40.01
2023-05-19T11:03:35.143Z,41.53
2023-05-19T11:04:35.165Z,37.86
2023-05-19T11:05:35.535Z,37.33
2023-05-19T11:06:35.322Z,38.12
2023-05-19T11:07:35.404Z,33.16
2023-05-19T11:08:35.522Z,30.06
2023-05-19T11:09:40.511Z,29.18
2023-05-19T11:10:36.582Z,27.70
2023-05-19T11:11:35.586Z,27.41
2023-05-19T11:12:35.626Z,29.35
2023-05-19T11:13:36.735Z,23.19
2023-05-19T11:14:35.639Z,23.21
2023-05-19T11:15:35.729Z,25.20
2023-05-19T11:16:35.766Z,30.74
2023-05-19T11:17:35.760Z,31.56
2023-05-19T11:18:35.777Z,28.81
2023-05-19T11:19:35.827Z,26.49
2023-05-19T11:20:35.905Z,25.47
2023-05-19T11:21:36.074Z,25.02
2023-05-19T11:22:36.105Z,25.00
2023-05-19T11:23:36.219Z,26.04
2023-05-19T11:24:36.240Z,25.65
2023-05-19T11:25:36.342Z,26.82
2023-05-19T11:26:36.417Z,25.00
2023-05-19T11:27:36.516Z,26.19
2023-05-19T11:28:36.585Z,30.62
2023-05-19T11:29:36.621Z,30.21
2023-05-19T11:30:36.616Z,27.27
2023-05-19T11:31:36.738Z,22.90
2023-05-19T11:32:36.715Z,25.16
2023-05-19T11:33:36.695Z,24.23
2023-05-19T11:34:36.760Z,28.39
2023-05-19T11:35:37.016Z,28.54
2023-05-19T11:36:36.788Z,26.50
2023-05-19T11:37:36.789Z,28.23
2023-05-19T11:38:36.795Z,25.38
2023-05-19T11:39:36.906Z,29.15
2023-05-19T11:40:36.982Z,26.96
2023-05-19T11:41:37.055Z,25.94
2023-05-19T11:42:37.433Z,25.98
2023-05-19T11:43:37.214Z,28.39
2023-05-19T11:44:37.333Z,29.54
2023-05-19T11:45:37.539Z,29.04
2023-05-19T11:46:37.505Z,25.00
2023-05-19T11:47:50.952Z,30.26
2023-05-19T11:48:38.605Z,30.27
2023-05-19T11:49:37.614Z,25.72
2023-05-19T11:50:37.678Z,24.44
2023-05-19T11:51:37.637Z,25.46
2023-05-19T11:52:37.683Z,27.98
2023-05-19T11:53:37.737Z,29.49
2023-05-19T11:54:37.706Z,25.34
2023-05-19T11:55:37.729Z,26.89
2023-05-19T11:56:37.749Z,28.42
2023-05-19T11:57:37.833Z,26.65
2023-05-19T11:58:37.890Z,27.89
2023-05-19T11:59:37.988Z,26.13
2023-05-19T12:00:38.098Z,26.45
2023-05-19T12:01:38.142Z,26.43
2023-05-19T12:02:38.286Z,26.61
2023-05-19T12:03:38.510Z,25.00
2023-05-19T12:04:38.447Z,25.85
2023-05-19T12:05:40.823Z,26.35
2023-05-19T12:06:38.531Z,26.39
2023-05-19T12:07:38.515Z,26.81
2023-05-19T12:08:38.497Z,25.41
2023-05-19T12:09:38.512Z,24.05
2023-05-19T12:10:38.543Z,24.45
2023-05-19T12:11:38.534Z,28.44
2023-05-19T12:12:38.558Z,26.21
2023-05-19T12:13:38.575Z,27.27
2023-05-19T12:14:38.594Z,31.54
2023-05-19T12:15:38.599Z,25.70
2023-05-19T12:16:38.636Z,31.34
2023-05-19T12:17:38.614Z,32.03
2023-05-19T12:18:38.638Z,31.05
2023-05-19T12:19:38.639Z,29.18
2023-05-19T12:20:38.705Z,30.63
2023-05-19T12:21:38.776Z,26.41
2023-05-19T12:22:38.848Z,26.35
2023-05-19T12:23:38.921Z,30.31
2023-05-19T12:24:38.994Z,26.40
2023-05-19T12:25:39.099Z,28.14
2023-05-19T12:26:39.169Z,27.84
2023-05-19T12:27:39.246Z,27.93
2023-05-19T12:28:39.224Z,27.97
2023-05-19T12:29:39.254Z,28.18
2023-05-19T12:30:39.406Z,28.39
2023-05-19T12:31:39.282Z,26.74
2023-05-19T12:32:39.302Z,24.04